| time (UTC) | temp F | wind direction | speed knots | gust knots | rain 1hr in | rain 24hr in | rain mn in | humidity % | barometer mb |
| 20260510061003 | 67 | 137 | 0.9 | 2.6 | 0.00 | 0.00 | 0.00 | 78 | 1013.1 |
| 20260510060003 | 67 | 135 | 0.9 | 2.6 | 0.00 | 0.00 | 0.00 | 76 | 1013.2 |
| 20260510055003 | 68 | 142 | 1.7 | 6.1 | 0.00 | 0.00 | 0.00 | 73 | 1013.4 |
| 20260510054003 | 69 | 133 | 2.6 | 6.1 | 0.00 | 0.00 | 0.00 | 73 | 1013.4 |
| 20260510053003 | 69 | 136 | 2.6 | 7.8 | 0.00 | 0.00 | 0.00 | 71 | 1013.2 |
| 20260510052004 | 68 | 128 | 5.2 | 12.2 | 0.00 | 0.00 | 0.00 | 71 | 1013.2 |
| 20260510051003 | 67 | 127 | 4.3 | 7.8 | 0.00 | 0.00 | 0.00 | 74 | 1012.8 |
| 20260510050004 | 67 | 116 | 3.5 | 6.1 | 0.00 | 0.00 | 0.00 | 74 | 1012.8 |
| 20260510045003 | 67 | 119 | 3.5 | 7.0 | 0.00 | 0.00 | 0.00 | 73 | 1012.5 |
| 20260510044003 | 68 | 120 | 3.5 | 6.1 | 0.00 | 0.00 | 0.00 | 73 | 1012.6 |
| 20260510043218 | 68 | 116 | 3.5 | 6.1 | 0.00 | 0.00 | 0.00 | 73 | 1012.4 |
| 20260510042003 | 68 | 117 | 3.5 | 6.1 | 0.00 | 0.00 | 0.00 | 72 | 1012.4 |
| 20260510041003 | 68 | 117 | 2.6 | 5.2 | 0.00 | 0.00 | 0.00 | 71 | 1012.3 |
| 20260510040003 | 68 | 114 | 3.5 | 6.1 | 0.00 | 0.00 | 0.00 | 71 | 1012.3 |
| 20260510035003 | 68 | 116 | 2.6 | 5.2 | 0.00 | 0.00 | 0.00 | 70 | 1012.4 |
| 20260510034003 | 69 | 118 | 3.5 | 6.1 | 0.00 | 0.00 | 0.00 | 70 | 1012.4 |
| 20260510033003 | 69 | 118 | 3.5 | 6.1 | 0.00 | 0.00 | 0.00 | 68 | 1012.3 |
| 20260510032004 | 69 | 117 | 3.5 | 6.1 | 0.00 | 0.00 | 0.00 | 67 | 1012.4 |
| 20260510031003 | 70 | 119 | 4.3 | 7.0 | 0.00 | 0.00 | 0.00 | 66 | 1012.1 |
| 20260510030004 | 70 | 124 | 4.3 | 7.8 | 0.00 | 0.00 | 0.00 | 64 | 1012.1 |
| 20260510025218 | 71 | 127 | 5.2 | 7.8 | 0.00 | 0.00 | 0.00 | 63 | 1012.0 |
| 20260510024003 | 71 | 133 | 4.3 | 7.0 | 0.00 | 0.00 | 0.00 | 62 | 1011.9 |
| 20260510023218 | 72 | 132 | 3.5 | 6.1 | 0.00 | 0.00 | 0.00 | 61 | 1011.8 |
| 20260510022003 | 72 | 130 | 5.2 | 8.7 | 0.00 | 0.00 | 0.00 | 60 | 1011.6 |
| 20260510021003 | 72 | 126 | 5.2 | 8.7 | 0.00 | 0.00 | 0.00 | 59 | 1011.5 |
| 20260510020004 | 72 | 128 | 5.2 | 7.8 | 0.00 | 0.00 | 0.00 | 59 | 1011.4 |
| 20260510015003 | 72 | 127 | 4.3 | 7.0 | 0.00 | 0.00 | 0.00 | 59 | 1011.4 |
| 20260510014217 | 72 | 125 | 4.3 | 7.0 | 0.00 | 0.00 | 0.00 | 59 | 1011.1 |
| 20260510013003 | 73 | 127 | 5.2 | 8.7 | 0.00 | 0.00 | 0.00 | 59 | 1011.3 |
| 20260510012003 | 74 | 132 | 3.5 | 7.0 | 0.00 | 0.00 | 0.00 | 59 | 1011.5 |
| 20260510011003 | 74 | 129 | 4.3 | 7.0 | 0.00 | 0.00 | 0.00 | 58 | 1011.4 |
| 20260510010003 | 75 | 137 | 3.5 | 7.0 | 0.00 | 0.00 | 0.00 | 57 | 1011.0 |
| 20260510005003 | 76 | 136 | 3.5 | 7.0 | 0.00 | 0.00 | 0.00 | 55 | 1011.0 |
| 20260510004003 | 77 | 134 | 3.5 | 7.8 | 0.00 | 0.00 | 0.00 | 54 | 1010.9 |
| 20260510003003 | 78 | 131 | 4.3 | 7.8 | 0.00 | 0.00 | 0.00 | 53 | 1010.6 |
| 20260510002003 | 79 | 139 | 3.5 | 7.8 | 0.00 | 0.00 | 0.00 | 51 | 1010.4 |
| 20260510001003 | 79 | 138 | 3.5 | 7.8 | 0.00 | 0.00 | 0.00 | 49 | 1010.5 |
| 20260510000003 | 80 | 134 | 3.5 | 7.0 | 0.00 | 0.00 | 0.00 | 48 | 1010.2 |
| 20260509235003 | 80 | 142 | 2.6 | 7.8 | 0.00 | 0.00 | 0.00 | 48 | 1010.4 |
| 20260509234003 | 81 | 139 | 2.6 | 7.0 | 0.00 | 0.00 | 0.00 | 48 | 1010.6 |
| 20260509233003 | 81 | 136 | 4.3 | 8.7 | 0.00 | 0.00 | 0.00 | 47 | 1010.4 |
| 20260509232003 | 81 | 139 | 2.6 | 7.0 | 0.00 | 0.00 | 0.00 | 48 | 1010.5 |
| 20260509231003 | 81 | 158 | 1.7 | 5.2 | 0.00 | 0.00 | 0.00 | 48 | 1010.3 |
| 20260509230003 | 82 | 139 | 3.5 | 9.6 | 0.00 | 0.00 | 0.00 | 49 | 1010.3 |
| 20260509225003 | 81 | 132 | 3.5 | 7.8 | 0.00 | 0.00 | 0.00 | 49 | 1010.1 |
| 20260509224004 | 81 | 132 | 5.2 | 11.3 | 0.00 | 0.00 | 0.00 | 48 | 1009.9 |
| 20260509223003 | 82 | 137 | 4.3 | 9.6 | 0.00 | 0.00 | 0.00 | 49 | 1010.1 |
| 20260509222004 | 83 | 145 | 2.6 | 7.0 | 0.00 | 0.00 | 0.00 | 47 | 1010.0 |
| 20260509221003 | 84 | 145 | 2.6 | 7.8 | 0.00 | 0.00 | 0.00 | 45 | 1009.8 |
| 20260509220003 | 84 | 124 | 2.6 | 7.0 | 0.00 | 0.00 | 0.00 | 41 | 1009.8 |
| 20260509215003 | 85 | 360 | 2.6 | 7.8 | 0.00 | 0.00 | 0.00 | 36 | 1009.9 |
| 20260509214003 | 86 | 219 | 0.9 | 2.6 | 0.00 | 0.00 | 0.00 | 34 | 1009.6 |
| 20260509213003 | 86 | 108 | 0.9 | 3.5 | 0.00 | 0.00 | 0.00 | 34 | 1009.7 |
| 20260509212217 | 85 | 36 | 2.6 | 8.7 | 0.00 | 0.00 | 0.00 | 33 | 1009.9 |
| 20260509211217 | 85 | 359 | 1.7 | 6.1 | 0.00 | 0.00 | 0.00 | 34 | 1010.1 |
| 20260509210003 | 85 | 38 | 3.5 | 7.8 | 0.00 | 0.00 | 0.00 | 34 | 1010.4 |
| 20260509205003 | 85 | 65 | 1.7 | 7.8 | 0.00 | 0.00 | 0.00 | 33 | 1010.4 |
| 20260509204003 | 85 | 74 | 3.5 | 9.6 | 0.00 | 0.00 | 0.00 | 32 | 1010.7 |
| 20260509203217 | 85 | 56 | 2.6 | 8.7 | 0.00 | 0.00 | 0.00 | 34 | 1010.6 |
| 20260509202217 | 85 | 84 | 1.7 | 6.1 | 0.00 | 0.00 | 0.00 | 34 | 1010.7 |
| 20260509201003 | 85 | 86 | 4.3 | 11.3 | 0.00 | 0.00 | 0.00 | 32 | 1011.1 |
| 20260509200003 | 85 | 38 | 1.7 | 6.1 | 0.00 | 0.00 | 0.00 | 39 | 1010.9 |
| 20260509195003 | 84 | 98 | 2.6 | 6.1 | 0.00 | 0.00 | 0.00 | 39 | 1010.9 |
| 20260509194003 | 84 | 129 | 2.6 | 7.0 | 0.00 | 0.00 | 0.00 | 37 | 1010.7 |
| 20260509193003 | 84 | 342 | 3.5 | 7.8 | 0.00 | 0.00 | 0.00 | 42 | 1010.9 |
| 20260509192003 | 83 | 6 | 5.2 | 8.7 | 0.00 | 0.00 | 0.00 | 41 | 1010.9 |
| 20260509191003 | 83 | 7 | 3.5 | 9.6 | 0.00 | 0.00 | 0.00 | 42 | 1011.0 |
| 20260509190003 | 83 | 18 | 3.5 | 7.8 | 0.00 | 0.00 | 0.00 | 44 | 1010.9 |
| 20260509185217 | 83 | 20 | 3.5 | 8.7 | 0.00 | 0.00 | 0.00 | 45 | 1011.1 |
| 20260509184216 | 83 | 101 | 2.6 | 7.8 | 0.00 | 0.00 | 0.00 | 47 | 1011.2 |
| 20260509183003 | 83 | 174 | 1.7 | 6.1 | 0.00 | 0.00 | 0.00 | 46 | 1011.1 |
| 20260509182003 | 82 | 141 | 3.5 | 7.0 | 0.00 | 0.00 | 0.00 | 50 | 1011.4 |
| 20260509181003 | 82 | 140 | 1.7 | 7.8 | 0.00 | 0.00 | 0.00 | 48 | 1011.5 |
| 20260509180003 | 82 | 126 | 3.5 | 8.7 | 0.00 | 0.00 | 0.00 | 51 | 1011.7 |
| 20260509175218 | 81 | 117 | 3.5 | 8.7 | 0.00 | 0.00 | 0.00 | 51 | 1011.8 |
| 20260509174003 | 81 | 19 | 3.5 | 9.6 | 0.00 | 0.00 | 0.00 | 52 | 1011.7 |
| 20260509173003 | 80 | 97 | 3.5 | 7.8 | 0.00 | 0.00 | 0.00 | 57 | 1011.9 |
| 20260509172003 | 81 | 50 | 2.6 | 7.8 | 0.00 | 0.00 | 0.00 | 52 | 1011.7 |
| 20260509171218 | 81 | 337 | 1.7 | 5.2 | 0.00 | 0.00 | 0.00 | 59 | 1011.7 |
| 20260509170218 | 79 | 64 | 1.7 | 5.2 | 0.00 | 0.00 | 0.00 | 60 | 1011.6 |
| 20260509165003 | 79 | 356 | 3.5 | 8.7 | 0.00 | 0.00 | 0.00 | 60 | 1011.6 |
| 20260509164003 | 80 | 337 | 3.5 | 7.0 | 0.00 | 0.00 | 0.00 | 62 | 1011.6 |
| 20260509163003 | 80 | 341 | 1.7 | 7.0 | 0.00 | 0.00 | 0.00 | 66 | 1011.6 |
| 20260509162003 | 78 | 109 | 0.9 | 2.6 | 0.00 | 0.00 | 0.00 | 67 | 1011.7 |
| 20260509161003 | 77 | 27 | 0.9 | 5.2 | 0.00 | 0.00 | 0.00 | 69 | 1011.8 |
| 20260509160003 | 76 | 7 | 2.6 | 5.2 | 0.00 | 0.00 | 0.00 | 71 | 1011.8 |
| 20260509155003 | 76 | 306 | 2.6 | 7.0 | 0.00 | 0.00 | 0.00 | 70 | 1011.6 |
| 20260509154218 | 75 | 333 | 1.7 | 6.1 | 0.00 | 0.00 | 0.00 | 74 | 1011.7 |
| 20260509153003 | 75 | 301 | 1.7 | 6.1 | 0.00 | 0.00 | 0.00 | 74 | 1011.6 |
| 20260509152003 | 74 | 285 | 1.7 | 6.1 | 0.00 | 0.00 | 0.00 | 77 | 1011.5 |
| 20260509151003 | 72 | 31 | 0.9 | 3.5 | 0.00 | 0.00 | 0.00 | 80 | 1011.8 |
| 20260509150003 | 70 | 249 | 1.7 | 5.2 | 0.00 | 0.00 | 0.00 | 81 | 1011.7 |
| 20260509145003 | 70 | 291 | 1.7 | 3.5 | 0.00 | 0.00 | 0.00 | 82 | 1012.1 |
| 20260509144003 | 69 | 224 | 1.7 | 3.5 | 0.00 | 0.00 | 0.00 | 84 | 1012.0 |
| 20260509143217 | 69 | 236 | 0.9 | 3.5 | 0.00 | 0.00 | 0.00 | 84 | 1011.8 |
| 20260509142003 | 68 | 265 | 0.9 | 3.5 | 0.00 | 0.00 | 0.00 | 86 | 1012.0 |
| 20260509141217 | 67 | 207 | 0.9 | 3.5 | 0.00 | 0.00 | 0.00 | 88 | 1012.1 |
| 20260509140004 | 67 | 212 | 1.7 | 5.2 | 0.00 | 0.00 | 0.00 | 88 | 1012.3 |
| 20260509135217 | 67 | 196 | 2.6 | 5.2 | 0.00 | 0.00 | 0.00 | 90 | 1012.1 |
| 20260509134003 | 66 | 198 | 1.7 | 5.2 | 0.00 | 0.00 | 0.00 | 91 | 1012.2 |
| 20260509133004 | 65 | 199 | 1.7 | 3.5 | 0.00 | 0.00 | 0.00 | 90 | 1011.9 |
| 20260509132003 | 65 | 234 | 0.9 | 2.6 | 0.00 | 0.00 | 0.00 | 91 | 1011.8 |
| 20260509131003 | 65 | 213 | 0.0 | 1.7 | 0.00 | 0.00 | 0.00 | 93 | 1011.7 |
| 20260509130003 | 63 | 201 | 0.0 | 1.7 | 0.00 | 0.00 | 0.00 | 94 | 1011.6 |
| 20260509125003 | 62 | 198 | 0.9 | 1.7 | 0.00 | 0.00 | 0.00 | 96 | 1011.8 |
| 20260509124003 | 60 | 261 | 0.9 | 2.6 | 0.00 | 0.00 | 0.00 | 97 | 1011.7 |
| 20260509123218 | 59 | 266 | 0.0 | 2.6 | 0.00 | 0.00 | 0.00 | 97 | 1011.5 |
| 20260509122003 | 57 | 0 | 0.0 | 0.0 | 0.00 | 0.00 | 0.00 | 97 | 1011.4 |
| 20260509121003 | 56 | 0 | 0.0 | 0.0 | 0.00 | 0.00 | 0.00 | 97 | 1011.1 |
| 20260509120003 | 56 | 0 | 0.0 | 0.0 | 0.00 | 0.00 | 0.00 | 97 | 1010.9 |
| 20260509115003 | 55 | 0 | 0.0 | 0.0 | 0.00 | 0.00 | 0.00 | 97 | 1011.0 |
| 20260509114003 | 55 | 0 | 0.0 | 0.0 | 0.00 | 0.00 | 0.00 | 97 | 1010.7 |
| 20260509113004 | 55 | 0 | 0.0 | 0.0 | 0.00 | 0.00 | 0.00 | 96 | 1010.7 |
| 20260509112003 | 56 | 0 | 0.0 | 0.0 | 0.00 | 0.00 | 0.00 | 96 | 1010.4 |
| 20260509111003 | 56 | 311 | 0.0 | 0.9 | 0.00 | 0.00 | 0.00 | 96 | 1010.4 |
| 20260509110003 | 56 | 209 | 0.0 | 1.7 | 0.00 | 0.00 | 0.00 | 96 | 1010.2 |
| 20260509105003 | 56 | 222 | 1.7 | 2.6 | 0.00 | 0.00 | 0.00 | 96 | 1010.2 |
| 20260509104003 | 56 | 264 | 0.0 | 0.9 | 0.00 | 0.00 | 0.00 | 96 | 1010.1 |
| 20260509103003 | 57 | 344 | 0.9 | 1.7 | 0.00 | 0.00 | 0.00 | 96 | 1010.0 |
| 20260509102003 | 57 | 19 | 1.7 | 3.5 | 0.00 | 0.00 | 0.00 | 97 | 1010.1 |
| 20260509101218 | 57 | 35 | 1.7 | 3.5 | 0.00 | 0.00 | 0.00 | 96 | 1010.1 |
| 20260509100004 | 57 | 55 | 0.0 | 0.9 | 0.00 | 0.00 | 0.00 | 96 | 1010.1 |
| 20260509095003 | 57 | 71 | 0.0 | 0.9 | 0.00 | 0.00 | 0.00 | 95 | 1010.0 |
| 20260509094004 | 57 | 1 | 0.0 | 0.9 | 0.00 | 0.00 | 0.00 | 95 | 1009.9 |
| 20260509093217 | 57 | 8 | 1.7 | 2.6 | 0.00 | 0.00 | 0.00 | 95 | 1009.9 |
| 20260509092003 | 57 | 28 | 0.9 | 1.7 | 0.00 | 0.00 | 0.00 | 95 | 1009.9 |
| 20260509091003 | 57 | 36 | 0.0 | 1.7 | 0.00 | 0.00 | 0.00 | 95 | 1010.0 |
| 20260509090003 | 57 | 32 | 0.9 | 1.7 | 0.00 | 0.00 | 0.00 | 95 | 1010.2 |
| 20260509085003 | 57 | 19 | 0.9 | 1.7 | 0.00 | 0.00 | 0.00 | 94 | 1010.3 |
| 20260509084003 | 58 | 6 | 0.9 | 1.7 | 0.00 | 0.00 | 0.00 | 94 | 1010.2 |
| 20260509083003 | 58 | 13 | 0.9 | 2.6 | 0.00 | 0.00 | 0.00 | 94 | 1010.4 |
| 20260509082003 | 59 | 356 | 0.9 | 3.5 | 0.00 | 0.00 | 0.00 | 94 | 1010.4 |
| 20260509081004 | 59 | 357 | 1.7 | 2.6 | 0.00 | 0.00 | 0.00 | 94 | 1010.7 |
| 20260509080004 | 59 | 352 | 2.6 | 3.5 | 0.00 | 0.00 | 0.00 | 95 | 1011.0 |
| 20260509075003 | 59 | 337 | 2.6 | 3.5 | 0.00 | 0.00 | 0.00 | 93 | 1010.5 |
| 20260509074003 | 60 | 289 | 1.7 | 2.6 | 0.00 | 0.00 | 0.00 | 93 | 1010.5 |
| 20260509073003 | 60 | 294 | 1.7 | 3.5 | 0.00 | 0.00 | 0.00 | 94 | 1010.3 |
| 20260509072003 | 59 | 303 | 0.0 | 1.7 | 0.00 | 0.00 | 0.00 | 93 | 1010.4 |
| 20260509071218 | 58 | 269 | 0.0 | 0.9 | 0.00 | 0.00 | 0.00 | 91 | 1010.3 |
| 20260509070003 | 59 | 226 | 0.0 | 0.9 | 0.00 | 0.00 | 0.00 | 91 | 1010.2 |
| 20260509065003 | 60 | 307 | 0.0 | 0.9 | 0.00 | 0.00 | 0.00 | 89 | 1010.2 |
| 20260509064003 | 60 | 294 | 0.0 | 1.7 | 0.00 | 0.00 | 0.00 | 89 | 1010.0 |
| 20260509063003 | 61 | 298 | 1.7 | 3.5 | 0.00 | 0.00 | 0.00 | 90 | 1009.9 |
| 20260509062003 | 60 | 285 | 1.7 | 3.5 | 0.00 | 0.00 | 0.00 | 89 | 1010.1 |